Accueil
METAR-TAF:

METAR-TAF

Aéroports :

Aéroport de l'île Christmas

Île Christmas, Australie

latitude: 10-26S, longitude: 105-41E, altitude: 279 m

Observation

Le bulletin a été fait il y a 37 minutes, à 19:00 UTC
Vent 10 kt de est
Température 23°C
Humidité 89%
Pression 1012 hPa
Visibilité 10 km ou plus
Nuages épars à une hauteur de 1000 ft
Nuages fragmentés à une hauteur de 1300 ft
Nuages fragmentés à une hauteur de 1800 ft

METAR: YPXM 131900Z AUTO 09010KT 9999 // SCT010 BKN013 BKN018 23/21 Q1012

Heure: 02:37 (19:37 UTC)

Prévision

Le bulletin a été fait il y a 2 heures et 33 minutes, à 17:04 UTC
Prévision valable du 13 à 18 UTC au 14 à 18 UTC
Vent 12 kt de sud-est
Visibilité 10 km ou plus
Nuages fragmentés à une hauteur de 1200 ft
Temporairement
du 13 à 18 UTC au 14 à 03 UTC
Visibilité 10 km ou plus
Nuages fragmentés à une hauteur de 600 ft

TAF: YPXM 131704Z 1318/1418 13012KT 9999 BKN012 TEMPO 1318/1403 9999 BKN006

Observations et prévisions météorologiques de plus de 4000 aéroports (messages METAR et TAF).

Les stations disponibles sont représentées par des disques jaunes et rouges sur la carte.

Passer la souris dessus pour voir le nom de la station.

Cliquer dessus pour voir les observations et prévisions météorologiques.

Pour changer de carte: cliquez sur les boutons verts avec une croix noire pour zoomer, sur le bouton vert avec un tiret pour effectuer un zoom arrière, ou sur les flèches vertes pour les cartes adjacentes.


METAR-TAF: